Time;durP1;ratioP1;P1;durP2;ratioP2;P2;SDS_P1;SDS_P2;PMS_P1;PMS_P2;Temp;Humidity;BMP_temperature;BMP_pressure;BME280_temperature;BME280_humidity;BME280_pressure;Samples;Min_cycle;Max_cycle;Signal;HPM_P1;HPM_P2
2023/10/14 00:01:31;;;;;;;11.23;3.20;;;19.40;99.30;;;;;;5024982;27;86971;-68
2023/10/14 00:03:57;;;;;;;13.40;3.38;;;19.40;99.40;;;;;;5027899;27;86281;-69
2023/10/14 00:06:24;;;;;;;17.58;2.53;;;19.30;99.50;;;;;;5013924;27;90353;-69
2023/10/14 00:11:16;;;;;;;9.63;2.08;;;19.20;99.90;;;;;;5032595;27;86006;-68
2023/10/14 00:13:49;;;;;;;9.35;1.30;;;19.20;99.90;;;;;;5025499;27;86396;-68
2023/10/14 09:16:49;;;;;;;12.88;2.40;;;11.60;99.90;;;;;;5023766;27;87229;-72
2023/10/14 09:19:15;;;;;;;27.00;2.40;;;13.00;99.90;;;;;;5026986;27;86687;-74
2023/10/14 09:21:47;;;;;;;17.95;2.08;;;13.00;99.90;;;;;;5033752;27;86944;-77
2023/10/14 09:24:13;;;;;;;13.57;2.13;;;13.00;99.90;;;;;;5030185;27;89372;-76
2023/10/14 09:26:44;;;;;;;23.25;2.95;;;13.00;99.90;;;;;;5038342;27;86499;-78
2023/10/14 09:29:11;;;;;;;12.70;2.05;;;13.10;99.90;;;;;;5032995;27;86326;-78
2023/10/14 09:31:47;;;;;;;17.05;1.88;;;13.20;99.90;;;;;;5032976;27;86259;-77
2023/10/14 09:34:24;;;;;;;21.17;3.25;;;13.30;99.90;;;;;;5039124;27;91888;-74
2023/10/14 09:36:53;;;;;;;13.07;2.13;;;13.30;99.90;;;;;;5041717;27;86520;-77
2023/10/14 09:39:24;;;;;;;12.90;2.15;;;13.40;99.90;;;;;;5036449;27;87000;-80
2023/10/14 09:41:53;;;;;;;20.17;1.98;;;13.40;99.50;;;;;;5038196;27;86809;-78
2023/10/14 09:44:21;;;;;;;23.98;2.58;;;13.50;99.70;;;;;;5070279;27;86422;-80
2023/10/14 09:46:53;;;;;;;17.00;2.28;;;13.60;99.10;;;;;;5063142;27;89921;-79
2023/10/14 09:49:22;;;;;;;18.20;1.63;;;13.70;98.10;;;;;;5025396;27;86261;-76
2023/10/14 09:51:49;;;;;;;17.33;1.75;;;13.70;97.60;;;;;;5025523;27;86898;-82
2023/10/14 09:54:16;;;;;;;14.38;2.03;;;13.70;97.60;;;;;;5045119;27;90286;-77
2023/10/14 09:56:46;;;;;;;11.90;1.55;;;13.80;98.10;;;;;;5027186;27;86571;-79
2023/10/14 09:59:14;;;;;;;40.10;4.60;;;13.80;97.00;;;;;;5027910;27;86350;-76
2023/10/14 10:01:39;;;;;;;12.93;1.55;;;13.80;97.50;;;;;;5046160;27;86376;-75
2023/10/14 10:04:21;;;;;;;12.98;1.67;;;13.80;96.60;;;;;;5021194;27;90675;-76
2023/10/14 10:07:04;;;;;;;16.92;1.90;;;13.90;97.30;;;;;;5033352;27;86955;-75
2023/10/14 10:10:01;;;;;;;16.98;1.98;;;13.90;97.00;;;;;;5031457;27;86641;-75
2023/10/14 10:12:30;;;;;;;16.33;2.47;;;14.00;96.20;;;;;;5027223;27;86488;-75
2023/10/14 10:15:06;;;;;;;19.90;2.78;;;14.00;96.10;;;;;;5036269;27;87890;-75
2023/10/14 10:17:34;;;;;;;35.08;3.67;;;14.00;95.70;;;;;;5052140;27;85874;-75
2023/10/14 10:20:09;;;;;;;22.35;2.88;;;14.00;96.20;;;;;;5037528;27;86381;-77
2023/10/14 10:22:53;;;;;;;13.30;2.35;;;14.00;96.00;;;;;;5044368;27;85792;-77
2023/10/14 10:25:23;;;;;;;14.27;1.70;;;14.10;95.20;;;;;;5044882;27;89286;-73
2023/10/14 10:27:50;;;;;;;13.93;1.75;;;14.30;95.30;;;;;;5008758;27;87124;-75
2023/10/14 10:30:20;;;;;;;11.05;1.73;;;14.30;94.20;;;;;;5010556;28;86984;-75
2023/10/14 10:32:50;;;;;;;12.93;2.28;;;14.50;94.40;;;;;;5008812;27;86951;-76
2023/10/14 10:35:20;;;;;;;16.27;2.22;;;14.60;94.70;;;;;;5010320;28;90936;-76
2023/10/14 10:37:57;;;;;;;11.95;1.50;;;14.60;93.90;;;;;;5005680;27;89356;-76
2023/10/14 10:40:27;;;;;;;11.35;1.85;;;14.70;95.10;;;;;;5011045;27;86886;-76
2023/10/14 10:43:09;;;;;;;13.80;1.80;;;14.90;94.70;;;;;;5005406;27;86401;-77
2023/10/14 10:45:36;;;;;;;13.00;1.98;;;15.00;93.60;;;;;;5011811;27;87478;-77
2023/10/14 10:48:05;;;;;;;14.77;1.98;;;15.00;93.30;;;;;;5009875;28;89079;-77
2023/10/14 10:50:40;;;;;;;12.40;1.90;;;14.90;92.80;;;;;;5005157;28;86756;-76
2023/10/14 10:53:09;;;;;;;18.10;3.05;;;14.90;92.60;;;;;;5008376;27;87230;-78
2023/10/14 10:55:38;;;;;;;51.22;6.15;;;14.90;93.40;;;;;;5004969;27;86827;-77
2023/10/14 10:58:07;;;;;;;75.70;7.78;;;15.10;92.50;;;;;;5003822;27;90244;-77
2023/10/14 11:00:34;;;;;;;31.17;3.45;;;15.10;92.90;;;;;;5014732;27;86472;-76
2023/10/14 11:03:00;;;;;;;19.45;2.33;;;15.30;92.10;;;;;;5009010;28;87474;-79
2023/10/14 11:05:31;;;;;;;16.45;2.05;;;15.40;91.20;;;;;;5012941;27;90271;-77
2023/10/14 11:07:57;;;;;;;11.93;1.38;;;15.40;91.00;;;;;;5039390;27;89801;-77
2023/10/14 11:10:31;;;;;;;12.65;2.47;;;15.60;91.30;;;;;;5017100;27;86276;-76
2023/10/14 11:12:58;;;;;;;14.23;1.90;;;15.70;88.90;;;;;;5008272;27;86288;-76
2023/10/14 11:15:26;;;;;;;21.83;3.65;;;15.70;90.20;;;;;;5006334;27;88634;-75
2023/10/14 11:17:59;;;;;;;16.80;3.40;;;15.80;90.40;;;;;;5006922;28;89952;-77
2023/10/14 11:20:28;;;;;;;34.75;4.88;;;16.00;91.10;;;;;;5005990;27;87206;-77
2023/10/14 11:22:58;;;;;;;16.17;2.67;;;16.10;90.10;;;;;;5000982;27;86883;-77
2023/10/14 11:25:25;;;;;;;14.88;2.38;;;16.30;90.30;;;;;;5006799;27;86305;-75
2023/10/14 11:27:54;;;;;;;12.05;2.13;;;16.30;87.50;;;;;;5008670;27;89446;-78
2023/10/14 11:30:21;;;;;;;15.32;2.75;;;16.40;84.30;;;;;;5008825;28;87042;-76
2023/10/14 11:32:51;;;;;;;12.85;1.83;;;16.40;85.20;;;;;;5008104;28;86583;-75
2023/10/14 11:35:21;;;;;;;22.27;2.30;;;16.40;87.00;;;;;;5038673;27;90281;-77
2023/10/14 11:37:55;;;;;;;20.77;2.05;;;16.50;86.00;;;;;;5007910;27;89584;-76
2023/10/14 11:40:26;;;;;;;15.20;2.10;;;16.50;86.20;;;;;;5009322;27;86637;-76
2023/10/14 11:42:55;;;;;;;13.00;1.85;;;16.40;84.30;;;;;;5039151;27;87173;-76
2023/10/14 11:45:21;;;;;;;14.63;2.25;;;16.50;82.40;;;;;;5003440;28;90711;-75
2023/10/14 11:47:48;;;;;;;6.70;1.60;;;16.40;81.60;;;;;;5005114;27;89877;-76
2023/10/14 11:50:17;;;;;;;9.23;1.50;;;16.50;81.70;;;;;;5008385;27;86629;-75
2023/10/14 11:52:46;;;;;;;11.68;2.00;;;16.50;79.50;;;;;;5006102;27;86595;-78
2023/10/14 11:55:16;;;;;;;9.05;2.17;;;16.40;81.60;;;;;;5007541;27;91153;-79
2023/10/14 11:57:45;;;;;;;15.02;2.72;;;16.40;81.70;;;;;;5012738;27;89338;-76
2023/10/14 12:00:16;;;;;;;10.15;2.08;;;16.50;81.20;;;;;;5008758;28;86601;-76
2023/10/14 12:02:43;;;;;;;12.25;2.15;;;16.50;78.20;;;;;;5023354;27;86687;-75
2023/10/14 12:05:10;;;;;;;14.00;1.70;;;16.30;81.00;;;;;;5040994;27;90439;-77
2023/10/14 12:07:36;;;;;;;9.45;1.85;;;16.10;82.40;;;;;;5005366;27;89902;-74
2023/10/14 12:10:04;;;;;;;13.45;2.03;;;16.00;91.00;;;;;;5024555;27;87008;-77
2023/10/14 12:12:32;;;;;;;10.02;2.17;;;15.80;93.00;;;;;;5008790;27;86308;-77
2023/10/14 12:14:59;;;;;;;10.25;1.75;;;15.60;93.80;;;;;;5007748;28;90852;-77
2023/10/14 12:17:25;;;;;;;10.60;1.95;;;15.50;94.40;;;;;;5007954;27;86332;-76
2023/10/14 12:19:51;;;;;;;12.02;2.13;;;15.40;95.20;;;;;;5004051;28;86330;-77
2023/10/14 12:22:17;;;;;;;16.35;2.42;;;15.30;95.20;;;;;;5009741;27;86963;-76
2023/10/14 12:24:42;;;;;;;9.65;2.55;;;15.20;95.90;;;;;;5008770;27;87439;-76
2023/10/14 12:27:13;;;;;;;8.80;1.45;;;15.20;95.80;;;;;;5004916;28;89631;-76
2023/10/14 12:29:42;;;;;;;6.65;1.27;;;15.00;94.20;;;;;;5004465;27;87212;-76
2023/10/14 12:32:14;;;;;;;5.75;1.13;;;14.80;92.00;;;;;;5010911;27;86803;-75
2023/10/14 12:34:43;;;;;;;8.27;2.03;;;14.70;92.80;;;;;;5009541;27;90290;-76
2023/10/14 12:37:19;;;;;;;8.68;1.58;;;14.70;91.70;;;;;;5005850;27;89665;-76
2023/10/14 12:39:55;;;;;;;10.80;1.25;;;14.70;92.10;;;;;;5009061;27;86447;-75
2023/10/14 12:42:23;;;;;;;8.70;1.25;;;14.70;90.50;;;;;;5005343;28;87271;-76
2023/10/14 12:44:52;;;;;;;15.32;2.15;;;14.60;90.50;;;;;;5005541;28;90447;-75
2023/10/14 12:47:23;;;;;;;18.05;1.45;;;14.50;90.20;;;;;;5010444;27;86981;-75
2023/10/14 12:49:50;;;;;;;11.35;1.73;;;14.40;90.90;;;;;;5004310;27;86409;-75
2023/10/14 12:52:19;;;;;;;4.00;1.10;;;14.40;91.10;;;;;;5005962;27;86537;-75
2023/10/14 12:54:51;;;;;;;15.20;1.75;;;14.40;91.70;;;;;;5005725;27;89093;-76
2023/10/14 12:57:19;;;;;;;12.38;1.58;;;14.40;91.60;;;;;;5010148;28;87337;-76
2023/10/14 12:59:46;;;;;;;7.78;1.23;;;14.40;91.90;;;;;;5006316;27;86345;-76
2023/10/14 13:02:17;;;;;;;8.52;1.60;;;14.40;91.80;;;;;;5008657;27;86183;-75
2023/10/14 13:04:44;;;;;;;7.30;1.45;;;14.50;92.50;;;;;;5011905;27;90692;-76
2023/10/14 13:07:11;;;;;;;9.65;1.60;;;14.60;92.60;;;;;;5008257;27;87497;-76
2023/10/14 13:09:38;;;;;;;14.57;2.20;;;14.60;92.60;;;;;;5003471;27;86812;-76
2023/10/14 13:12:18;;;;;;;11.27;2.63;;;14.70;92.70;;;;;;5017044;28;86644;-76
2023/10/14 13:14:44;;;;;;;9.75;1.90;;;14.60;93.00;;;;;;5006940;27;90866;-76
2023/10/14 13:17:11;;;;;;;12.50;2.17;;;14.60;93.00;;;;;;5042982;27;89958;-76
2023/10/14 13:19:36;;;;;;;23.23;3.33;;;14.70;93.50;;;;;;5007137;27;87303;-76
2023/10/14 13:22:11;;;;;;;12.50;1.60;;;14.70;93.90;;;;;;5010612;27;86795;-75
2023/10/14 13:24:40;;;;;;;46.58;6.60;;;14.60;94.20;;;;;;5009796;27;88109;-76
2023/10/14 13:27:06;;;;;;;13.98;2.20;;;14.50;94.00;;;;;;5008172;28;86547;-76
2023/10/14 13:29:35;;;;;;;17.00;2.15;;;14.40;94.70;;;;;;5009757;27;86322;-75
2023/10/14 13:32:01;;;;;;;12.10;2.50;;;14.40;95.70;;;;;;5013595;27;86688;-76
2023/10/14 13:34:27;;;;;;;10.68;1.92;;;14.50;95.90;;;;;;4996628;27;87653;-76
2023/10/14 13:36:53;;;;;;;12.80;2.22;;;14.60;95.90;;;;;;5003783;28;87812;-75
2023/10/14 13:39:19;;;;;;;11.60;1.70;;;14.80;95.00;;;;;;5008159;28;87111;-76
2023/10/14 13:41:48;;;;;;;9.70;1.45;;;15.00;95.00;;;;;;5011036;27;86858;-76
2023/10/14 13:44:17;;;;;;;11.75;1.92;;;15.30;95.10;;;;;;5004584;27;91340;-76
2023/10/14 13:46:44;;;;;;;10.23;1.75;;;15.50;93.70;;;;;;5006710;27;89850;-76
2023/10/14 13:49:10;;;;;;;28.58;3.50;;;15.50;92.60;;;;;;5008614;27;86387;-76
2023/10/14 13:51:36;;;;;;;46.20;4.22;;;15.60;91.30;;;;;;5006310;27;86409;-77
2023/10/14 13:54:02;;;;;;;12.75;2.08;;;15.60;92.10;;;;;;5012964;28;86798;-76
2023/10/14 13:56:27;;;;;;;12.55;2.03;;;15.70;91.90;;;;;;5012505;27;87481;-75
2023/10/14 13:58:53;;;;;;;12.60;1.92;;;15.80;92.00;;;;;;5003665;27;86310;-76
2023/10/14 14:01:19;;;;;;;8.57;1.63;;;15.90;91.60;;;;;;5018837;27;86856;-75
2023/10/14 14:03:58;;;;;;;12.18;1.77;;;16.00;91.20;;;;;;5016432;27;87104;-76
2023/10/14 14:06:28;;;;;;;11.15;1.85;;;16.00;91.00;;;;;;5009534;27;90044;-76
2023/10/14 14:08:55;;;;;;;17.05;1.60;;;16.00;90.80;;;;;;5010986;28;86822;-76
2023/10/14 14:11:23;;;;;;;36.25;3.30;;;15.70;91.00;;;;;;5011350;27;86981;-76
2023/10/14 14:13:51;;;;;;;13.70;1.85;;;15.50;92.20;;;;;;5008394;27;90159;-77
2023/10/14 14:16:20;;;;;;;12.80;1.90;;;15.20;93.60;;;;;;5005516;27;89380;-73
2023/10/14 14:18:49;;;;;;;5.57;1.35;;;14.80;94.30;;;;;;5006784;27;86174;-74
2023/10/14 14:21:18;;;;;;;5.32;1.00;;;14.10;93.80;;;;;;5012863;28;87097;-77
2023/10/14 14:23:44;;;;;;;8.57;1.08;;;13.70;96.10;;;;;;5044474;27;89520;-75
2023/10/14 14:26:18;;;;;;;15.05;1.88;;;13.30;96.80;;;;;;5006853;27;86750;-74
2023/10/14 14:28:44;;;;;;;39.28;3.40;;;13.10;97.50;;;;;;5006869;27;87163;-77
2023/10/14 14:31:13;;;;;;;11.95;1.42;;;13.20;99.00;;;;;;5005286;27;86563;-76
2023/10/14 14:33:45;;;;;;;5.65;0.88;;;13.40;99.00;;;;;;5005912;27;90353;-74
2023/10/14 14:36:11;;;;;;;50.23;4.40;;;13.60;98.00;;;;;;5041849;27;88390;-77
2023/10/14 14:38:41;;;;;;;6.25;1.17;;;13.70;97.50;;;;;;5005580;27;86302;-77
2023/10/14 14:41:12;;;;;;;4.65;1.00;;;13.90;97.60;;;;;;5008651;28;86922;-76
2023/10/14 14:43:38;;;;;;;5.10;1.55;;;13.90;98.00;;;;;;5005241;27;90350;-78
2023/10/14 14:46:11;;;;;;;7.50;1.10;;;13.90;97.70;;;;;;5007391;27;90004;-77
2023/10/14 14:48:37;;;;;;;8.73;1.70;;;13.90;98.20;;;;;;5015085;27;86526;-72
2023/10/14 14:51:07;;;;;;;9.30;1.88;;;14.00;98.20;;;;;;5006834;28;86869;-75
2023/10/14 14:53:33;;;;;;;12.57;1.70;;;14.00;99.50;;;;;;5007567;27;90238;-74
2023/10/14 14:56:01;;;;;;;16.00;1.92;;;14.00;98.30;;;;;;5007340;27;89579;-74
2023/10/14 14:58:28;;;;;;;12.60;1.50;;;14.00;98.80;;;;;;5012330;27;86232;-73
2023/10/14 15:00:54;;;;;;;10.88;1.77;;;13.90;98.50;;;;;;5008186;27;86595;-74
2023/10/14 15:03:20;;;;;;;9.70;1.88;;;13.80;98.50;;;;;;5008961;28;86385;-74
2023/10/14 15:05:49;;;;;;;16.40;3.13;;;13.70;98.30;;;;;;5011029;27;86855;-73
2023/10/14 15:08:18;;;;;;;28.70;3.10;;;13.70;99.60;;;;;;5010399;27;86812;-73
2023/10/14 15:10:46;;;;;;;16.00;2.35;;;13.70;99.10;;;;;;5006978;27;86687;-73
2023/10/14 15:13:14;;;;;;;7.90;1.25;;;13.60;99.10;;;;;;5010278;27;87268;-73
2023/10/14 15:15:41;;;;;;;58.53;5.53;;;13.60;99.30;;;;;;5008115;27;88766;-72
2023/10/14 15:18:08;;;;;;;16.50;2.53;;;13.50;98.20;;;;;;5046455;27;86978;-72
2023/10/14 15:20:38;;;;;;;9.75;1.90;;;13.40;98.30;;;;;;5011932;27;86780;-75
2023/10/14 15:23:04;;;;;;;8.95;1.27;;;13.30;98.40;;;;;;5016681;27;87388;-74
2023/10/14 15:25:36;;;;;;;9.73;1.88;;;13.20;98.70;;;;;;5005965;27;88768;-74
2023/10/14 15:28:11;;;;;;;10.57;1.85;;;13.10;98.80;;;;;;5008929;27;87510;-72
2023/10/14 15:30:37;;;;;;;9.52;1.65;;;13.00;98.60;;;;;;5005537;27;87466;-72
2023/10/14 15:33:07;;;;;;;11.50;1.38;;;13.00;99.10;;;;;;5010581;28;90089;-74
2023/10/14 15:35:34;;;;;;;9.40;1.70;;;12.90;98.90;;;;;;5005972;27;86851;-73
2023/10/14 15:38:03;;;;;;;9.68;1.30;;;12.90;99.20;;;;;;5009046;27;86245;-72
2023/10/14 15:40:32;;;;;;;11.40;1.42;;;12.90;99.40;;;;;;5004322;27;87568;-75
2023/10/14 15:42:58;;;;;;;7.03;1.20;;;12.80;99.10;;;;;;5003415;27;90678;-74
2023/10/14 15:45:25;;;;;;;11.43;1.65;;;12.80;99.00;;;;;;5019942;27;89751;-75
2023/10/14 15:47:54;;;;;;;10.60;1.83;;;12.80;98.90;;;;;;5012177;28;86070;-75
2023/10/14 15:50:21;;;;;;;12.43;1.42;;;12.70;98.80;;;;;;5006745;27;86465;-75
2023/10/14 15:52:49;;;;;;;14.40;1.52;;;12.70;98.80;;;;;;5011594;27;88312;-75
2023/10/14 15:55:16;;;;;;;16.38;2.22;;;12.60;98.80;;;;;;5014535;27;86869;-74
2023/10/14 15:57:43;;;;;;;5.60;1.48;;;12.50;98.90;;;;;;5007864;27;86218;-74
2023/10/14 16:00:23;;;;;;;9.45;1.60;;;12.50;99.50;;;;;;5039607;27;86201;-75
2023/10/14 16:02:53;;;;;;;15.32;1.45;;;12.40;99.20;;;;;;5005952;27;87442;-73
2023/10/14 16:05:21;;;;;;;11.75;1.40;;;12.40;99.20;;;;;;5001330;27;89671;-74
2023/10/14 16:07:56;;;;;;;12.52;1.42;;;12.40;99.60;;;;;;5012564;27;86666;-72
2023/10/14 16:10:23;;;;;;;12.35;1.60;;;12.30;99.30;;;;;;5007575;27;86569;-74
2023/10/14 16:12:51;;;;;;;8.00;1.17;;;12.30;99.80;;;;;;5004558;27;90584;-73
2023/10/14 16:15:17;;;;;;;9.07;1.58;;;12.20;99.40;;;;;;5008686;27;86739;-73
2023/10/14 16:17:53;;;;;;;18.02;1.95;;;12.20;99.90;;;;;;5004633;27;86999;-73
2023/10/14 16:20:24;;;;;;;13.27;1.52;;;12.10;99.50;;;;;;5020340;27;86786;-75
2023/10/14 16:22:51;;;;;;;12.05;1.95;;;12.10;99.60;;;;;;5006339;27;90163;-73
2023/10/14 16:25:20;;;;;;;5.65;1.13;;;12.10;99.90;;;;;;5009396;28;86682;-75
2023/10/14 16:27:46;;;;;;;12.80;1.50;;;12.10;99.70;;;;;;5009335;27;86383;-75
2023/10/14 16:30:16;;;;;;;13.45;1.30;;;12.10;99.80;;;;;;5007387;28;86295;-73
2023/10/14 16:32:43;;;;;;;5.70;1.27;;;12.10;99.20;;;;;;5005625;27;86656;-73
2023/10/14 16:35:09;;;;;;;5.47;0.98;;;12.10;99.50;;;;;;5001947;28;87697;-74
2023/10/14 16:37:35;;;;;;;9.05;1.30;;;12.00;99.80;;;;;;5007298;27;86583;-74
2023/10/14 16:40:00;;;;;;;5.15;1.00;;;12.00;99.90;;;;;;5002326;27;86398;-72
2023/10/14 16:42:29;;;;;;;9.43;1.75;;;12.00;99.90;;;;;;5002791;27;90586;-75
2023/10/14 16:44:54;;;;;;;10.18;1.25;;;11.90;99.50;;;;;;5002433;28;89001;-73
2023/10/14 16:47:20;;;;;;;8.50;1.30;;;11.90;99.90;;;;;;5002350;27;86838;-74
2023/10/14 16:49:50;;;;;;;9.10;1.10;;;11.90;99.90;;;;;;5000050;27;86863;-74
2023/10/14 16:52:17;;;;;;;13.98;1.98;;;11.80;99.90;;;;;;5004346;27;87824;-75
2023/10/14 16:54:43;;;;;;;5.30;1.38;;;11.80;99.90;;;;;;5001695;27;88520;-72
2023/10/14 16:57:09;;;;;;;5.95;1.27;;;11.70;99.90;;;;;;5022308;27;87144;-77
2023/10/14 16:59:35;;;;;;;8.10;1.27;;;11.60;99.90;;;;;;5012272;27;86448;-76
2023/10/14 17:02:02;;;;;;;5.22;1.20;;;11.50;99.90;;;;;;5014681;27;90633;-77
2023/10/14 17:04:31;;;;;;;8.60;1.33;;;11.50;99.90;;;;;;5014747;28;86961;-77
2023/10/14 17:07:00;;;;;;;12.88;1.25;;;11.40;99.90;;;;;;5014683;28;86992;-77
2023/10/14 17:09:27;;;;;;;10.77;1.50;;;11.30;99.90;;;;;;5010922;28;86495;-77
2023/10/14 17:11:53;;;;;;;11.70;1.23;;;11.20;99.90;;;;;;5002073;28;91620;-77
2023/10/14 17:14:19;;;;;;;8.23;0.98;;;11.20;99.90;;;;;;5007025;28;89915;-77
2023/10/14 17:16:44;;;;;;;12.60;2.60;;;11.10;99.90;;;;;;5009143;28;86436;-77
2023/10/14 17:19:11;;;;;;;11.30;3.35;;;11.10;99.90;;;;;;5004528;28;86548;-78
2023/10/14 17:21:36;;;;;;;7.97;2.38;;;11.10;99.90;;;;;;5006436;27;87587;-77
2023/10/14 17:24:03;;;;;;;12.10;2.05;;;11.00;99.90;;;;;;5008368;28;89571;-78
2023/10/14 17:26:30;;;;;;;8.90;2.05;;;11.00;99.90;;;;;;5005756;27;86506;-78
2023/10/14 17:28:57;;;;;;;9.70;1.85;;;11.00;99.90;;;;;;5007709;28;86318;-78
2023/10/14 17:31:23;;;;;;;15.27;2.10;;;11.00;99.90;;;;;;5008082;28;90504;-77
2023/10/14 17:33:48;;;;;;;8.85;1.88;;;10.90;99.90;;;;;;5007888;28;89772;-77
2023/10/14 17:36:15;;;;;;;9.95;2.10;;;10.80;99.90;;;;;;5009701;28;87110;-77
2023/10/14 17:38:41;;;;;;;10.65;2.13;;;10.80;99.90;;;;;;5009173;27;87429;-77
2023/10/14 17:41:18;;;;;;;11.77;1.92;;;10.70;99.90;;;;;;5010776;27;90120;-78
2023/10/14 17:43:44;;;;;;;7.57;1.95;;;10.70;99.90;;;;;;5010408;28;91656;-77
2023/10/14 17:46:19;;;;;;;12.57;1.67;;;10.60;99.90;;;;;;5011036;27;87663;-77
2023/10/14 17:48:45;;;;;;;14.35;2.17;;;10.60;99.90;;;;;;5022311;27;87064;-78
2023/10/14 17:51:11;;;;;;;7.18;1.70;;;10.50;99.90;;;;;;5015423;28;89210;-77
2023/10/14 17:53:38;;;;;;;13.05;2.40;;;10.40;99.90;;;;;;5015190;27;86887;-77
2023/10/14 17:56:08;;;;;;;11.90;2.08;;;10.40;99.90;;;;;;5009061;28;86307;-77
2023/10/14 17:58:34;;;;;;;14.05;2.30;;;10.30;99.90;;;;;;5012952;27;86655;-78
2023/10/14 18:01:00;;;;;;;9.77;2.15;;;10.30;99.90;;;;;;5016822;28;87105;-78
2023/10/14 18:03:26;;;;;;;11.10;1.77;;;10.20;99.90;;;;;;5009940;28;89842;-77
2023/10/14 18:05:52;;;;;;;8.38;1.80;;;10.20;99.90;;;;;;5014291;28;86782;-77
2023/10/14 18:08:28;;;;;;;7.25;1.42;;;10.20;99.90;;;;;;5012984;27;86403;-77
2023/10/14 18:10:53;;;;;;;8.10;1.42;;;10.20;99.90;;;;;;5008757;28;89893;-77
2023/10/14 18:13:22;;;;;;;16.83;2.65;;;10.20;99.90;;;;;;5009001;28;90410;-77
2023/10/14 18:15:48;;;;;;;11.45;2.35;;;10.10;99.90;;;;;;5006847;28;87004;-77
2023/10/14 18:18:14;;;;;;;11.93;1.92;;;10.10;99.90;;;;;;5012176;28;87147;-77
2023/10/14 18:20:40;;;;;;;5.45;1.13;;;10.10;99.90;;;;;;5014924;28;91058;-77
2023/10/14 18:23:07;;;;;;;2.20;0.65;;;10.10;99.90;;;;;;5011825;27;87805;-77
2023/10/14 18:25:40;;;;;;;4.45;0.93;;;10.10;99.90;;;;;;5013720;27;86339;-77
2023/10/14 18:28:09;;;;;;;2.80;0.82;;;10.00;99.90;;;;;;5010526;27;86578;-76
2023/10/14 18:30:39;;;;;;;2.75;0.80;;;10.00;99.90;;;;;;5007921;27;91570;-78
2023/10/14 18:33:06;;;;;;;5.10;0.55;;;10.00;99.90;;;;;;5012724;28;90687;-77
2023/10/14 18:35:32;;;;;;;2.72;0.60;;;10.10;99.90;;;;;;5012009;27;87331;-78
2023/10/14 18:37:59;;;;;;;4.53;0.80;;;10.10;99.90;;;;;;5008194;27;86792;-77
2023/10/14 18:40:29;;;;;;;7.07;0.70;;;10.10;99.90;;;;;;5025963;27;89230;-77
2023/10/14 18:43:06;;;;;;;4.40;0.90;;;10.10;99.90;;;;;;5044847;27;89903;-77
2023/10/14 18:45:34;;;;;;;3.45;0.75;;;10.10;99.90;;;;;;5016861;27;87427;-77
2023/10/14 18:48:01;;;;;;;4.10;0.80;;;10.10;99.90;;;;;;5043264;27;86373;-77
2023/10/14 18:50:31;;;;;;;2.88;0.82;;;10.10;99.90;;;;;;5009653;27;87422;-77
2023/10/14 18:52:59;;;;;;;5.22;0.80;;;10.10;99.90;;;;;;5043495;27;88868;-78
2023/10/14 18:55:31;;;;;;;3.75;0.70;;;10.00;99.90;;;;;;5009160;27;86797;-77
2023/10/14 18:58:02;;;;;;;2.05;0.40;;;10.00;99.90;;;;;;5013345;27;86370;-77
2023/10/14 19:00:33;;;;;;;1.88;0.70;;;9.90;99.90;;;;;;5011645;27;86612;-78
2023/10/14 19:03:03;;;;;;;4.95;1.30;;;9.90;99.90;;;;;;5042617;27;89384;-77
2023/10/14 19:05:30;;;;;;;5.15;1.42;;;9.80;99.90;;;;;;5017176;27;86359;-77
2023/10/14 19:08:12;;;;;;;3.67;1.33;;;9.70;99.90;;;;;;5008302;28;86589;-77
2023/10/14 19:10:48;;;;;;;3.13;1.63;;;9.60;99.90;;;;;;5029267;27;89529;-77
2023/10/14 19:13:16;;;;;;;2.97;1.52;;;9.50;99.90;;;;;;5042919;27;90491;-77
2023/10/14 19:15:44;;;;;;;3.70;1.38;;;9.40;99.90;;;;;;5009918;27;86686;-78
2023/10/14 19:18:13;;;;;;;4.30;2.30;;;9.30;99.90;;;;;;5013022;28;86880;-77
2023/10/14 19:20:40;;;;;;;5.78;1.30;;;9.30;99.90;;;;;;5011267;27;89300;-77
2023/10/14 19:23:26;;;;;;;4.07;1.13;;;9.20;99.90;;;;;;5047482;27;90131;-78
2023/10/14 19:25:53;;;;;;;3.35;1.20;;;9.10;99.90;;;;;;5007955;27;87447;-78
2023/10/14 19:28:23;;;;;;;3.35;0.95;;;9.10;99.90;;;;;;5009268;28;87409;-77
2023/10/14 19:30:50;;;;;;;5.22;1.20;;;9.00;99.90;;;;;;5009170;28;94462;-77
2023/10/14 19:33:17;;;;;;;7.30;1.38;;;8.90;99.90;;;;;;5014183;28;90505;-78
2023/10/14 19:35:44;;;;;;;8.07;1.45;;;8.90;99.90;;;;;;5010597;27;86856;-78
2023/10/14 19:38:11;;;;;;;5.15;1.08;;;8.80;99.90;;;;;;5013036;27;87039;-78
2023/10/14 19:40:41;;;;;;;3.80;1.25;;;8.70;99.90;;;;;;5016517;27;87040;-77
2023/10/14 19:43:11;;;;;;;5.78;1.30;;;8.70;99.90;;;;;;5012784;27;86928;-77
2023/10/14 19:45:41;;;;;;;11.60;2.10;;;8.60;99.90;;;;;;5010380;27;86491;-77
2023/10/14 19:48:07;;;;;;;4.80;1.67;;;8.60;99.90;;;;;;5014744;28;86803;-77
2023/10/14 19:50:33;;;;;;;7.53;1.48;;;8.50;99.90;;;;;;5038887;27;90081;-77
2023/10/14 19:53:02;;;;;;;6.45;1.83;;;8.50;99.90;;;;;;5012308;27;89507;-77
2023/10/14 19:55:28;;;;;;;5.93;1.73;;;8.40;99.90;;;;;;5010144;27;86412;-77
2023/10/14 19:57:57;;;;;;;4.82;1.65;;;8.40;99.90;;;;;;5011030;27;87464;-77
2023/10/14 20:00:26;;;;;;;7.03;2.38;;;8.40;99.90;;;;;;5010131;28;90582;-77
2023/10/14 20:02:58;;;;;;;4.80;1.85;;;8.30;99.90;;;;;;5010347;28;95311;-77
2023/10/14 20:05:24;;;;;;;7.13;2.20;;;8.30;99.90;;;;;;5007433;27;86559;-77
2023/10/14 20:07:51;;;;;;;8.75;2.13;;;8.20;99.90;;;;;;5007660;27;86391;-77
2023/10/14 20:10:21;;;;;;;8.80;2.17;;;8.10;99.90;;;;;;5011594;27;87290;-77
2023/10/14 20:12:49;;;;;;;4.63;1.83;;;8.00;99.90;;;;;;5012043;27;87119;-77
2023/10/14 20:15:16;;;;;;;5.93;2.30;;;8.00;99.90;;;;;;5010489;28;86443;-77
2023/10/14 20:17:42;;;;;;;4.53;1.70;;;8.00;99.90;;;;;;5006012;27;87107;-76
2023/10/14 20:20:16;;;;;;;8.68;1.95;;;7.90;99.90;;;;;;5012587;27;87366;-77
2023/10/14 20:22:48;;;;;;;6.32;2.00;;;7.90;99.90;;;;;;5010261;27;87046;-76
2023/10/14 20:25:18;;;;;;;4.50;2.13;;;7.80;99.90;;;;;;5005436;27;87373;-77
2023/10/14 20:27:48;;;;;;;9.35;2.28;;;7.80;99.90;;;;;;5006976;27;86460;-77
2023/10/14 20:30:15;;;;;;;4.50;1.90;;;7.80;99.90;;;;;;5009969;28;90544;-77
2023/10/14 20:32:42;;;;;;;9.55;2.53;;;7.70;99.90;;;;;;5007833;28;89744;-77
2023/10/14 20:35:08;;;;;;;10.63;2.30;;;7.70;99.90;;;;;;5011182;28;87024;-77
2023/10/14 20:37:34;;;;;;;9.68;2.13;;;7.70;99.90;;;;;;5007004;27;86899;-77
2023/10/14 20:40:00;;;;;;;8.30;2.50;;;7.60;99.90;;;;;;5007646;28;90848;-76
2023/10/14 20:42:26;;;;;;;4.47;1.85;;;7.60;99.90;;;;;;5010528;27;86362;-77
2023/10/14 20:44:52;;;;;;;6.45;2.20;;;7.60;99.90;;;;;;5008663;28;86029;-77
2023/10/14 20:47:17;;;;;;;7.25;2.30;;;7.50;99.90;;;;;;5007680;27;85926;-78
2023/10/14 20:49:44;;;;;;;7.30;2.45;;;7.50;99.90;;;;;;5008405;27;88937;-76
2023/10/14 20:52:10;;;;;;;7.90;2.58;;;7.50;99.90;;;;;;5005978;27;88674;-76
2023/10/14 20:54:36;;;;;;;11.25;2.03;;;7.40;99.90;;;;;;5003894;27;86033;-77
2023/10/14 20:57:07;;;;;;;7.88;2.42;;;7.50;99.90;;;;;;5009176;28;86652;-76
2023/10/14 20:59:34;;;;;;;7.43;3.17;;;7.50;99.90;;;;;;5014355;27;87041;-77
2023/10/14 21:02:00;;;;;;;9.82;2.42;;;7.50;99.90;;;;;;5007574;27;89500;-77
2023/10/14 21:04:26;;;;;;;11.55;2.83;;;7.40;99.90;;;;;;5011275;27;85934;-77
2023/10/14 21:06:51;;;;;;;7.28;2.30;;;7.50;99.90;;;;;;5009276;27;86582;-76
2023/10/14 21:09:21;;;;;;;9.30;2.10;;;7.60;99.90;;;;;;5008814;28;86924;-76
2023/10/14 21:11:48;;;;;;;15.45;2.25;;;7.60;99.90;;;;;;5007521;27;88442;-77
2023/10/14 21:14:15;;;;;;;11.35;2.42;;;7.70;99.90;;;;;;5010485;28;86512;-77
2023/10/14 21:16:42;;;;;;;11.80;2.45;;;7.70;99.90;;;;;;5006796;27;86486;-77
2023/10/14 21:19:10;;;;;;;9.02;2.70;;;7.80;99.90;;;;;;5010053;28;90882;-77
2023/10/14 21:21:37;;;;;;;7.72;2.45;;;7.80;99.90;;;;;;5005601;27;89737;-78
2023/10/14 21:24:06;;;;;;;12.98;3.50;;;7.90;99.90;;;;;;5012568;28;86754;-77
2023/10/14 21:26:36;;;;;;;19.05;5.03;;;7.90;99.90;;;;;;5008898;28;86447;-77
2023/10/14 21:29:05;;;;;;;14.77;5.30;;;8.00;99.90;;;;;;5043069;27;90523;-77
2023/10/14 21:31:30;;;;;;;12.63;5.65;;;8.00;99.90;;;;;;5008193;27;87180;-77
2023/10/14 21:33:57;;;;;;;9.60;4.93;;;8.00;99.90;;;;;;5011531;27;86331;-76
2023/10/14 21:36:23;;;;;;;16.98;5.95;;;8.10;99.90;;;;;;5013072;28;86751;-76
2023/10/14 21:38:49;;;;;;;14.73;4.32;;;8.10;99.90;;;;;;5010910;27;92772;-78
2023/10/14 21:41:18;;;;;;;8.25;3.65;;;8.10;99.90;;;;;;5007322;27;90365;-77
2023/10/14 21:43:47;;;;;;;8.27;3.83;;;8.10;99.90;;;;;;5044733;27;86566;-76
2023/10/14 21:46:15;;;;;;;11.15;3.25;;;8.10;99.90;;;;;;5006691;27;86064;-77
2023/10/14 21:48:43;;;;;;;6.85;3.10;;;8.00;99.90;;;;;;5005226;27;88216;-76
2023/10/14 21:51:09;;;;;;;13.27;3.55;;;8.10;99.90;;;;;;5009471;28;90055;-77
2023/10/14 21:53:38;;;;;;;10.82;3.88;;;8.00;99.90;;;;;;5010672;27;86817;-79